createdAt,value
2017-08-23T00:00:06.937Z,12.53
2017-08-23T00:02:34.449Z,12.70
2017-08-23T00:05:01.988Z,12.60
2017-08-23T00:07:29.506Z,11.00
2017-08-23T00:09:57.034Z,12.47
2017-08-23T00:12:24.564Z,12.17
2017-08-23T00:14:52.073Z,12.67
2017-08-23T00:17:19.623Z,11.77
2017-08-23T00:19:47.164Z,11.37
2017-08-23T00:22:14.702Z,11.77
2017-08-23T00:24:42.238Z,12.50
2017-08-23T00:27:09.774Z,11.93
2017-08-23T00:29:37.274Z,12.90
2017-08-23T00:32:04.803Z,12.10
2017-08-23T00:34:32.307Z,12.00
2017-08-23T00:36:59.815Z,11.67
2017-08-23T00:39:27.346Z,11.90
2017-08-23T00:41:54.850Z,12.00
2017-08-23T00:44:22.358Z,12.80
2017-08-23T00:46:49.902Z,11.93
2017-08-23T00:49:17.413Z,12.30
2017-08-23T00:51:44.918Z,12.30
2017-08-23T00:54:12.466Z,12.80
2017-08-23T00:56:40.002Z,11.73
2017-08-23T00:59:07.506Z,12.37
2017-08-23T01:01:35.043Z,13.83
2017-08-23T01:04:02.551Z,12.90
2017-08-23T01:06:30.059Z,12.10
2017-08-23T01:08:57.609Z,13.60
2017-08-23T01:11:25.119Z,14.43
2017-08-23T01:13:52.632Z,15.00
2017-08-23T01:16:20.170Z,15.10
2017-08-23T01:18:47.679Z,15.23
2017-08-23T01:21:15.190Z,14.43
2017-08-23T01:23:42.723Z,16.17
2017-08-23T01:26:10.239Z,14.73
2017-08-23T01:28:37.775Z,15.60
2017-08-23T01:31:05.279Z,16.23
2017-08-23T01:33:32.818Z,16.00
2017-08-23T01:36:00.339Z,16.87
2017-08-23T01:38:27.850Z,16.47
2017-08-23T01:40:55.387Z,17.73
2017-08-23T01:43:22.916Z,16.33
2017-08-23T01:45:50.429Z,16.90
2017-08-23T01:48:17.969Z,18.53
2017-08-23T01:50:45.483Z,17.40
2017-08-23T01:53:12.999Z,17.80
2017-08-23T01:55:40.533Z,17.97
2017-08-23T01:58:08.049Z,17.23
2017-08-23T02:00:35.562Z,16.20
2017-08-23T02:03:03.101Z,17.23
2017-08-23T02:05:30.610Z,17.50
2017-08-23T02:07:58.125Z,18.17
2017-08-23T02:10:25.662Z,18.17
2017-08-23T02:12:53.186Z,17.03
2017-08-23T02:15:20.699Z,17.07
2017-08-23T02:17:48.229Z,17.30
2017-08-23T02:20:15.740Z,16.30
2017-08-23T02:22:43.255Z,17.17
2017-08-23T02:25:10.782Z,16.37
2017-08-23T02:27:38.352Z,16.20
2017-08-23T02:30:05.874Z,17.43
2017-08-23T02:32:33.383Z,17.80
2017-08-23T02:35:00.928Z,16.77
2017-08-23T02:37:28.443Z,16.07
2017-08-23T02:39:55.951Z,16.97
2017-08-23T02:42:23.487Z,17.37
2017-08-23T02:44:51.001Z,16.60
2017-08-23T02:47:18.518Z,15.80
2017-08-23T02:49:46.059Z,17.10
2017-08-23T02:52:13.571Z,17.77
2017-08-23T02:54:41.088Z,16.10
2017-08-23T02:57:08.635Z,17.47
2017-08-23T02:59:36.142Z,16.10
2017-08-23T03:02:03.660Z,16.33
2017-08-23T03:04:31.199Z,17.87
2017-08-23T03:06:58.707Z,15.87
2017-08-23T03:09:26.214Z,15.77
2017-08-23T03:11:53.742Z,18.27
2017-08-23T03:14:21.256Z,16.43
2017-08-23T03:16:48.775Z,17.43
2017-08-23T03:19:16.335Z,15.70
2017-08-23T03:21:43.839Z,16.47
2017-08-23T03:24:11.347Z,16.73
2017-08-23T03:26:38.883Z,15.97
2017-08-23T03:29:06.406Z,16.87
2017-08-23T03:31:33.930Z,17.27
2017-08-23T03:34:01.472Z,17.70
2017-08-23T03:36:28.979Z,17.00
2017-08-23T03:38:56.490Z,19.50
2017-08-23T03:41:24.027Z,18.47
2017-08-23T03:43:51.539Z,18.60
2017-08-23T03:46:19.055Z,21.03
2017-08-23T03:48:46.586Z,20.97
2017-08-23T03:51:14.098Z,21.70
2017-08-23T03:53:41.611Z,21.00
2017-08-23T03:56:09.143Z,20.60
2017-08-23T03:58:36.645Z,21.53
2017-08-23T04:01:04.154Z,21.33
2017-08-23T04:03:31.691Z,20.70
2017-08-23T04:05:59.194Z,21.67
2017-08-23T04:08:26.703Z,19.83
2017-08-23T04:10:54.239Z,20.87
2017-08-23T04:13:21.755Z,23.13
2017-08-23T04:15:49.280Z,24.33
2017-08-23T04:18:16.800Z,23.20
2017-08-23T04:20:44.330Z,23.67
2017-08-23T04:23:11.847Z,22.33
2017-08-23T04:25:39.355Z,22.17
2017-08-23T04:28:06.895Z,22.50
2017-08-23T04:30:34.407Z,23.57
2017-08-23T04:33:01.915Z,23.90
2017-08-23T04:35:29.455Z,22.67
2017-08-23T04:37:56.990Z,22.07
2017-08-23T04:40:24.523Z,22.70
2017-08-23T04:42:52.026Z,23.23
2017-08-23T04:45:19.539Z,22.90
2017-08-23T04:47:47.071Z,21.13
2017-08-23T04:50:14.611Z,22.17
2017-08-23T04:52:42.147Z,21.57
2017-08-23T04:55:09.655Z,23.13
2017-08-23T04:57:37.163Z,21.50
2017-08-23T05:00:04.694Z,21.80
2017-08-23T05:02:32.211Z,21.60
2017-08-23T05:04:59.747Z,22.17
2017-08-23T05:07:27.278Z,19.97
2017-08-23T05:09:54.784Z,22.50
2017-08-23T05:12:22.310Z,21.57
2017-08-23T05:14:49.827Z,22.37
2017-08-23T05:17:17.338Z,21.23
2017-08-23T05:19:44.877Z,20.33
2017-08-23T05:22:12.383Z,18.73
2017-08-23T05:24:39.886Z,20.27
2017-08-23T05:27:07.414Z,19.37
2017-08-23T05:29:34.922Z,19.37
2017-08-23T05:32:02.441Z,19.67
2017-08-23T05:34:29.962Z,18.43
2017-08-23T05:36:57.466Z,17.73
2017-08-23T05:39:24.999Z,16.90
2017-08-23T05:41:52.507Z,16.73
2017-08-23T05:44:20.018Z,16.13
2017-08-23T05:46:47.543Z,16.97
2017-08-23T05:49:15.078Z,17.43
2017-08-23T05:51:42.577Z,16.80
2017-08-23T05:54:10.085Z,16.87
2017-08-23T05:56:37.614Z,17.67
2017-08-23T05:59:05.137Z,16.60
2017-08-23T06:01:32.648Z,17.30
2017-08-23T06:04:00.154Z,17.77
2017-08-23T06:06:27.695Z,18.77
2017-08-23T06:08:55.222Z,18.40
2017-08-23T06:11:22.725Z,18.30
2017-08-23T06:13:50.234Z,17.53
2017-08-23T06:16:17.757Z,17.07
2017-08-23T06:18:45.294Z,16.70
2017-08-23T06:21:12.794Z,19.20
2017-08-23T06:23:40.334Z,16.93
2017-08-23T06:26:07.842Z,16.63
2017-08-23T06:28:35.346Z,16.83
2017-08-23T06:31:02.875Z,16.97
2017-08-23T06:33:30.379Z,18.20
2017-08-23T06:35:57.878Z,19.20
2017-08-23T06:38:25.406Z,18.17
2017-08-23T06:40:52.914Z,19.63
2017-08-23T06:43:20.423Z,17.13
2017-08-23T06:45:47.950Z,15.97
2017-08-23T06:48:15.468Z,16.17
2017-08-23T06:50:42.970Z,14.03
2017-08-23T06:53:10.505Z,14.70
2017-08-23T06:55:38.010Z,14.93
2017-08-23T06:58:05.522Z,13.20
2017-08-23T07:00:33.055Z,13.60
2017-08-23T07:03:00.561Z,15.13
2017-08-23T07:05:28.070Z,13.63
2017-08-23T07:07:55.607Z,13.50
2017-08-23T07:10:23.209Z,12.90
2017-08-23T07:12:50.709Z,12.40
2017-08-23T07:15:18.233Z,12.97
2017-08-23T07:17:45.738Z,14.97
2017-08-23T07:20:13.234Z,14.80
2017-08-23T07:22:40.763Z,14.30
2017-08-23T07:25:08.279Z,13.93
2017-08-23T07:27:35.786Z,13.50
2017-08-23T07:30:03.314Z,12.97
2017-08-23T07:32:30.817Z,12.87
2017-08-23T07:34:58.313Z,12.77
2017-08-23T07:37:25.838Z,11.80
2017-08-23T07:39:53.342Z,11.23
2017-08-23T07:42:20.850Z,12.80
2017-08-23T07:44:48.387Z,12.53
2017-08-23T07:47:15.893Z,11.67
2017-08-23T07:49:43.398Z,11.20
2017-08-23T07:52:10.926Z,11.07
2017-08-23T07:54:38.435Z,11.00
2017-08-23T07:57:05.934Z,11.77
2017-08-23T07:59:33.471Z,10.33
2017-08-23T08:02:00.986Z,10.80
2017-08-23T08:04:28.495Z,11.20
2017-08-23T08:06:56.030Z,9.73
2017-08-23T08:09:23.543Z,11.97
2017-08-23T08:11:51.051Z,9.43
2017-08-23T08:14:18.578Z,10.23
2017-08-23T08:16:46.086Z,10.23
2017-08-23T08:19:13.689Z,9.77
2017-08-23T08:21:41.216Z,10.00
2017-08-23T08:24:08.724Z,8.80
2017-08-23T08:26:36.245Z,9.83
2017-08-23T08:29:03.767Z,9.57
2017-08-23T08:31:31.289Z,8.53
2017-08-23T08:33:58.815Z,8.63
2017-08-23T08:36:26.329Z,12.20
2017-08-23T08:38:53.843Z,9.40
2017-08-23T08:41:21.384Z,10.30
2017-08-23T08:43:48.903Z,10.33
2017-08-23T08:46:16.411Z,9.50
2017-08-23T08:48:44.342Z,11.17
2017-08-23T08:51:11.843Z,11.20
2017-08-23T08:53:39.350Z,10.80
2017-08-23T08:56:06.908Z,10.50
2017-08-23T08:58:34.430Z,12.20
2017-08-23T09:01:01.930Z,10.13
2017-08-23T09:03:29.462Z,10.77
2017-08-23T09:05:56.968Z,9.37
2017-08-23T09:08:24.471Z,8.50
2017-08-23T09:10:51.999Z,9.40
2017-08-23T09:13:19.508Z,9.90
2017-08-23T09:15:47.018Z,10.97
2017-08-23T09:18:14.546Z,9.37
2017-08-23T09:20:42.051Z,9.10
2017-08-23T09:26:08.342Z,9.73
2017-08-23T09:28:35.837Z,9.10
2017-08-23T09:31:03.337Z,8.77
2017-08-23T09:33:30.865Z,9.73
2017-08-23T09:35:58.362Z,8.60
2017-08-23T09:38:25.889Z,8.27
2017-08-23T09:40:53.386Z,9.47
2017-08-23T09:43:20.886Z,9.90
2017-08-23T09:45:48.414Z,9.40
2017-08-23T09:48:15.933Z,9.23
2017-08-23T09:50:43.438Z,9.70
2017-08-23T09:53:10.961Z,8.83
2017-08-23T09:55:38.462Z,8.40
2017-08-23T09:58:05.966Z,9.63
2017-08-23T10:00:33.505Z,9.40
2017-08-23T10:03:01.021Z,8.53
2017-08-23T10:05:28.545Z,7.90
2017-08-23T10:07:56.480Z,8.63
2017-08-23T10:10:23.981Z,8.87
2017-08-23T10:12:51.503Z,9.77
2017-08-23T10:15:19.001Z,9.10
2017-08-23T10:17:46.502Z,8.10
2017-08-23T10:20:14.041Z,8.50
2017-08-23T10:22:41.541Z,8.47
2017-08-23T10:25:09.037Z,9.03
2017-08-23T10:27:36.559Z,9.43
2017-08-23T10:30:04.058Z,7.30
2017-08-23T10:32:31.553Z,8.07
2017-08-23T10:34:59.074Z,7.57
2017-08-23T10:37:26.574Z,9.50
2017-08-23T10:39:54.073Z,8.03
2017-08-23T10:42:21.590Z,7.23
2017-08-23T10:44:49.085Z,7.93
2017-08-23T10:47:16.581Z,8.23
2017-08-23T10:49:44.106Z,7.67
2017-08-23T10:52:11.601Z,8.10
2017-08-23T10:54:39.093Z,8.50
2017-08-23T10:57:06.617Z,7.60
2017-08-23T10:59:34.122Z,7.30
2017-08-23T11:02:01.633Z,10.17
2017-08-23T11:04:29.155Z,8.50
2017-08-23T11:06:56.690Z,7.50
2017-08-23T11:09:24.194Z,7.90
2017-08-23T11:11:51.714Z,7.77
2017-08-23T11:14:19.250Z,6.90
2017-08-23T11:16:46.746Z,8.30
2017-08-23T11:19:14.318Z,7.60
2017-08-23T11:21:41.834Z,7.40
2017-08-23T11:24:09.332Z,7.30
2017-08-23T11:26:36.838Z,7.30
2017-08-23T11:29:04.362Z,8.00
2017-08-23T11:31:31.866Z,6.50
2017-08-23T11:33:59.376Z,8.03
2017-08-23T11:36:26.897Z,7.70
2017-08-23T11:38:54.398Z,7.60
2017-08-23T11:41:21.906Z,8.13
2017-08-23T11:43:49.430Z,6.70
2017-08-23T11:46:16.950Z,8.00
2017-08-23T11:48:44.450Z,7.80
2017-08-23T11:51:11.991Z,7.50
2017-08-23T11:53:39.488Z,7.83
2017-08-23T11:56:06.982Z,7.27
2017-08-23T11:58:34.512Z,7.67
2017-08-23T12:01:02.009Z,6.97
2017-08-23T12:03:29.506Z,7.50
2017-08-23T12:05:57.025Z,7.00
2017-08-23T12:08:24.919Z,7.80
2017-08-23T12:10:52.418Z,7.00
2017-08-23T12:13:19.940Z,6.73
2017-08-23T12:15:47.442Z,7.53
2017-08-23T12:18:14.951Z,7.70
2017-08-23T12:20:42.478Z,6.87
2017-08-23T12:23:09.986Z,8.13
2017-08-23T12:25:37.486Z,6.60
2017-08-23T12:28:05.013Z,7.40
2017-08-23T12:30:32.513Z,6.60
2017-08-23T12:33:00.010Z,7.50
2017-08-23T12:35:27.530Z,7.40
2017-08-23T12:37:55.030Z,7.00
2017-08-23T12:40:22.529Z,7.67
2017-08-23T12:42:50.053Z,7.93
2017-08-23T12:45:17.549Z,8.07
2017-08-23T12:47:45.050Z,7.07
2017-08-23T12:50:12.577Z,8.33
2017-08-23T12:52:40.125Z,7.70
2017-08-23T12:55:07.622Z,7.40
2017-08-23T12:57:35.150Z,7.50
2017-08-23T13:00:02.665Z,6.93
2017-08-23T13:02:30.170Z,7.50
2017-08-23T13:04:57.695Z,7.20
2017-08-23T13:07:25.194Z,6.97
2017-08-23T13:09:52.729Z,7.07
2017-08-23T13:12:20.242Z,7.80
2017-08-23T13:14:47.745Z,8.90
2017-08-23T13:17:15.246Z,7.10
2017-08-23T13:19:42.877Z,8.40
2017-08-23T13:22:10.389Z,6.97
2017-08-23T13:24:37.882Z,6.47
2017-08-23T13:27:05.406Z,6.60
2017-08-23T13:29:32.906Z,15.00
2017-08-23T13:32:00.409Z,7.40
2017-08-23T13:34:27.934Z,7.53
2017-08-23T13:36:55.434Z,7.33
2017-08-23T13:39:22.957Z,7.03
2017-08-23T13:41:50.470Z,7.60
2017-08-23T13:44:17.973Z,7.57
2017-08-23T13:46:45.494Z,7.47
2017-08-23T13:49:13.027Z,11.70
2017-08-23T13:51:40.526Z,9.83
2017-08-23T13:54:08.030Z,7.87
2017-08-23T13:56:35.550Z,7.13
2017-08-23T13:59:03.054Z,8.23
2017-08-23T14:01:30.546Z,6.80
2017-08-23T14:03:58.074Z,7.57
2017-08-23T14:06:25.566Z,7.27
2017-08-23T14:08:53.466Z,6.73
2017-08-23T14:11:20.994Z,7.13
2017-08-23T14:13:48.517Z,7.07
2017-08-23T14:16:16.022Z,7.30
2017-08-23T14:18:43.545Z,7.93
2017-08-23T14:21:11.066Z,10.60
2017-08-23T14:23:38.568Z,7.50
2017-08-23T14:26:06.145Z,7.60
2017-08-23T14:28:33.621Z,7.77
2017-08-23T14:31:01.126Z,9.93
2017-08-23T14:33:28.649Z,7.67
2017-08-23T14:35:56.149Z,7.20
2017-08-23T14:38:23.646Z,8.17
2017-08-23T14:40:51.157Z,7.33
2017-08-23T14:43:18.659Z,6.60
2017-08-23T14:45:46.163Z,8.57
2017-08-23T14:48:13.687Z,8.43
2017-08-23T14:50:41.190Z,7.40
2017-08-23T14:53:08.694Z,7.20
2017-08-23T14:55:36.218Z,6.87
2017-08-23T14:58:03.723Z,7.10
2017-08-23T15:00:31.221Z,7.40
2017-08-23T15:02:58.734Z,6.77
2017-08-23T15:05:26.230Z,7.40
2017-08-23T15:07:53.732Z,7.30
2017-08-23T15:10:21.250Z,7.30
2017-08-23T15:12:48.753Z,7.63
2017-08-23T15:15:16.258Z,9.30
2017-08-23T15:17:43.790Z,8.03
2017-08-23T15:20:11.289Z,8.30
2017-08-23T15:22:38.792Z,7.00
2017-08-23T15:25:06.325Z,7.33
2017-08-23T15:27:33.830Z,7.50
2017-08-23T15:30:01.326Z,7.27
2017-08-23T15:32:28.853Z,7.83
2017-08-23T15:34:56.313Z,7.20
2017-08-23T15:37:23.842Z,7.10
2017-08-23T15:39:51.369Z,6.80
2017-08-23T15:42:18.866Z,7.03
2017-08-23T15:44:46.362Z,6.57
2017-08-23T15:47:13.890Z,7.60
2017-08-23T15:49:41.406Z,7.00
2017-08-23T15:52:08.923Z,7.00
2017-08-23T15:54:36.454Z,7.97
2017-08-23T15:57:04.041Z,7.10
2017-08-23T15:59:31.542Z,6.53
2017-08-23T16:01:59.066Z,7.10
2017-08-23T16:04:26.570Z,8.20
2017-08-23T16:06:54.077Z,7.20
2017-08-23T16:09:21.606Z,7.97
2017-08-23T16:11:49.106Z,7.30
2017-08-23T16:14:16.610Z,6.83
2017-08-23T16:16:44.131Z,7.40
2017-08-23T16:19:11.631Z,7.60
2017-08-23T16:21:39.145Z,7.80
2017-08-23T16:24:06.698Z,6.83
2017-08-23T16:26:34.199Z,7.23
2017-08-23T16:29:01.707Z,8.60
2017-08-23T16:31:29.234Z,7.27
2017-08-23T16:33:56.738Z,7.40
2017-08-23T16:36:24.242Z,7.50
2017-08-23T16:38:51.830Z,7.30
2017-08-23T16:41:19.346Z,7.17
2017-08-23T16:43:46.846Z,7.70
2017-08-23T16:46:14.366Z,7.30
2017-08-23T16:48:41.875Z,7.40
2017-08-23T16:51:09.401Z,6.87
2017-08-23T16:53:36.898Z,7.30
2017-08-23T16:56:04.418Z,8.17
2017-08-23T16:58:31.965Z,7.13
2017-08-23T17:00:59.571Z,7.10
2017-08-23T17:03:27.075Z,6.87
2017-08-23T17:05:54.625Z,7.27
2017-08-23T17:08:22.126Z,6.53
2017-08-23T17:10:49.626Z,7.37
2017-08-23T17:13:17.198Z,7.20
2017-08-23T17:15:44.709Z,7.40
2017-08-23T17:18:12.258Z,7.10
2017-08-23T17:20:39.787Z,7.03
2017-08-23T17:23:07.296Z,7.07
2017-08-23T17:25:34.833Z,7.17
2017-08-23T17:28:03.222Z,7.40
2017-08-23T17:30:30.718Z,6.77
2017-08-23T17:32:58.218Z,6.60
2017-08-23T17:35:25.742Z,6.80
2017-08-23T17:37:53.249Z,7.77
2017-08-23T17:40:20.761Z,7.30
2017-08-23T17:42:48.298Z,7.80
2017-08-23T17:45:15.797Z,7.50
2017-08-23T17:47:43.294Z,7.30
2017-08-23T17:50:10.822Z,8.20
2017-08-23T17:52:38.326Z,7.90
2017-08-23T17:55:05.830Z,8.50
2017-08-23T17:57:33.357Z,7.37
2017-08-23T18:00:00.854Z,7.87
2017-08-23T18:02:28.730Z,7.87
2017-08-23T18:04:56.293Z,7.53
2017-08-23T18:07:23.812Z,7.70
2017-08-23T18:09:51.313Z,7.53
2017-08-23T18:12:18.841Z,8.30
2017-08-23T18:14:46.342Z,7.10
2017-08-23T18:17:13.838Z,6.80
2017-08-23T18:19:41.382Z,7.63
2017-08-23T18:22:08.881Z,6.73
2017-08-23T18:24:36.378Z,7.00
2017-08-23T18:27:03.901Z,7.43
2017-08-23T18:29:31.402Z,13.80
2017-08-23T18:31:58.905Z,11.20
2017-08-23T18:34:26.434Z,11.90
2017-08-23T18:36:53.957Z,9.40
2017-08-23T18:39:21.470Z,9.80
2017-08-23T18:41:49.001Z,12.77
2017-08-23T18:44:16.510Z,55.00
2017-08-23T18:46:44.010Z,12.13
2017-08-23T18:49:12.517Z,8.60
2017-08-23T18:51:40.082Z,8.67
2017-08-23T18:54:07.582Z,7.60
2017-08-23T18:56:35.534Z,10.83
2017-08-23T18:59:03.046Z,11.23
2017-08-23T19:01:30.546Z,8.97
2017-08-23T19:03:58.073Z,8.90
2017-08-23T19:06:25.576Z,8.83
2017-08-23T19:08:53.082Z,9.10
2017-08-23T19:11:20.606Z,7.83
2017-08-23T19:13:48.113Z,8.07
2017-08-23T19:16:15.614Z,7.73
2017-08-23T19:18:43.138Z,9.57
2017-08-23T19:21:10.641Z,7.87
2017-08-23T19:23:38.143Z,8.30
2017-08-23T19:26:05.670Z,8.30
2017-08-23T19:28:33.170Z,8.57
2017-08-23T19:31:00.695Z,8.30
2017-08-23T19:33:28.226Z,9.43
2017-08-23T19:35:55.730Z,9.50
2017-08-23T19:38:23.233Z,10.40
2017-08-23T19:40:50.765Z,11.60
2017-08-23T19:43:18.273Z,11.00
2017-08-23T19:45:45.798Z,12.33
2017-08-23T19:48:13.326Z,11.87
2017-08-23T19:50:40.850Z,11.80
2017-08-23T19:53:08.375Z,10.20
2017-08-23T19:55:35.902Z,12.10
2017-08-23T19:58:03.429Z,11.77
2017-08-23T20:00:30.954Z,11.20
2017-08-23T20:02:58.474Z,11.70
2017-08-23T20:05:26.007Z,11.40
2017-08-23T20:07:53.534Z,11.67
2017-08-23T20:10:21.038Z,11.17
2017-08-23T20:12:48.542Z,11.70
2017-08-23T20:15:16.071Z,10.97
2017-08-23T20:17:43.634Z,11.87
2017-08-23T20:20:11.138Z,11.63
2017-08-23T20:22:38.662Z,11.93
2017-08-23T20:25:06.170Z,12.10
2017-08-23T20:27:33.685Z,14.90
2017-08-23T20:30:01.222Z,11.83
2017-08-23T20:32:28.753Z,10.83
2017-08-23T20:34:56.266Z,11.87
2017-08-23T20:37:23.794Z,10.10
2017-08-23T20:39:51.318Z,10.67
2017-08-23T20:42:18.822Z,11.57
2017-08-23T20:44:46.693Z,10.70
2017-08-23T20:47:14.202Z,11.73
2017-08-23T20:49:41.708Z,10.40
2017-08-23T20:52:09.238Z,11.17
2017-08-23T20:54:36.742Z,12.00
2017-08-23T20:57:04.250Z,11.40
2017-08-23T20:59:31.847Z,11.77
2017-08-23T21:01:59.378Z,11.50
2017-08-23T21:04:26.879Z,11.50
2017-08-23T21:06:54.403Z,11.33
2017-08-23T21:09:21.955Z,11.60
2017-08-23T21:11:49.458Z,12.10
2017-08-23T21:14:16.993Z,10.60
2017-08-23T21:16:44.497Z,10.70
2017-08-23T21:19:12.010Z,12.40
2017-08-23T21:21:39.538Z,12.10
2017-08-23T21:24:07.048Z,11.80
2017-08-23T21:26:34.550Z,10.90
2017-08-23T21:29:02.083Z,11.47
2017-08-23T21:31:29.582Z,12.13
2017-08-23T21:33:57.090Z,10.53
2017-08-23T21:36:25.467Z,11.57
2017-08-23T21:38:52.974Z,12.53
2017-08-23T21:41:20.503Z,11.77
2017-08-23T21:43:48.037Z,12.00
2017-08-23T21:46:15.563Z,11.60
2017-08-23T21:48:43.095Z,11.43
2017-08-23T21:51:10.633Z,10.30
2017-08-23T21:53:38.153Z,12.00
2017-08-23T21:56:05.654Z,11.47
2017-08-23T21:58:33.177Z,11.80
2017-08-23T22:01:00.679Z,10.70
2017-08-23T22:03:28.179Z,9.90
2017-08-23T22:08:28.380Z,11.40
2017-08-23T22:10:55.886Z,12.03
2017-08-23T22:13:23.422Z,12.67
2017-08-23T22:15:51.869Z,13.50
2017-08-23T22:18:19.383Z,12.73
2017-08-23T22:20:46.893Z,13.40
2017-08-23T22:23:14.515Z,12.90
2017-08-23T22:25:42.019Z,14.03
2017-08-23T22:28:09.522Z,14.60
2017-08-23T22:30:37.427Z,13.43
2017-08-23T22:33:04.979Z,13.87
2017-08-23T22:35:32.803Z,13.80
2017-08-23T22:40:37.545Z,14.03
2017-08-23T22:43:05.079Z,14.10
2017-08-23T22:45:32.585Z,13.73
2017-08-23T22:48:00.113Z,13.90
2017-08-23T22:50:27.642Z,15.00
2017-08-23T22:52:55.178Z,15.90
2017-08-23T22:55:22.681Z,27.87
2017-08-23T22:57:50.217Z,33.30
2017-08-23T23:00:17.729Z,37.97
2017-08-23T23:02:45.233Z,47.43
2017-08-23T23:05:12.766Z,42.37
2017-08-23T23:07:40.583Z,41.30
2017-08-23T23:10:08.106Z,41.73
2017-08-23T23:12:35.641Z,35.53
2017-08-23T23:15:03.145Z,34.70
2017-08-23T23:17:30.654Z,27.43
2017-08-23T23:19:58.181Z,26.53
2017-08-23T23:22:25.694Z,25.47
2017-08-23T23:24:53.238Z,28.80
2017-08-23T23:27:20.770Z,25.00
2017-08-23T23:29:48.278Z,21.30
2017-08-23T23:32:15.778Z,19.47
2017-08-23T23:34:43.725Z,20.27
2017-08-23T23:37:11.227Z,23.50
2017-08-23T23:39:38.748Z,21.37
2017-08-23T23:42:06.299Z,22.50
2017-08-23T23:44:33.802Z,20.40
2017-08-23T23:47:01.308Z,18.70
2017-08-23T23:49:28.849Z,19.30
2017-08-23T23:51:56.366Z,19.67
2017-08-23T23:54:23.869Z,19.80
2017-08-23T23:56:51.417Z,21.57
2017-08-23T23:59:18.931Z,21.30
